Terminal Aerodrome Forecast
Issued by NWS Charleston, WV

Current Version | Previous Version | Graphics & Text | Print | Product List | Glossary On
Versions: 1 2 3 4 5 6 7 8 9 10 11 12 13 14 15 16 17 18 19 20
000
FTUS41 KRLX 222300
TAFCRW
TAF
KCRW 222334Z 2300/2324 13008KT P6SM FEW035 BKN100
     FM230300 VRB04KT P6SM BKN040 OVC150
     FM231400 16006KT P6SM BKN040=

USA.gov is the U.S. government's official web portal to all federal, state and local government web resources and services.